sensor_id;sensor_type;location;lat;lon;timestamp;P1;durP1;ratioP1;P2;durP2;ratioP2
22078;SDS011;11206;57.696;11.944;2022-10-14T00:00:15;41.95;;;8.50;;
22078;SDS011;11206;57.696;11.944;2022-10-14T00:02:41;36.17;;;9.32;;
22078;SDS011;11206;57.696;11.944;2022-10-14T00:05:07;21.10;;;7.78;;
22078;SDS011;11206;57.696;11.944;2022-10-14T00:07:34;33.08;;;8.90;;
22078;SDS011;11206;57.696;11.944;2022-10-14T00:10:00;29.85;;;8.45;;
22078;SDS011;11206;57.696;11.944;2022-10-14T00:12:27;34.35;;;8.25;;
22078;SDS011;11206;57.696;11.944;2022-10-14T00:14:53;26.60;;;8.98;;
22078;SDS011;11206;57.696;11.944;2022-10-14T00:17:20;22.73;;;7.03;;
22078;SDS011;11206;57.696;11.944;2022-10-14T00:19:46;28.30;;;7.63;;
22078;SDS011;11206;57.696;11.944;2022-10-14T00:22:13;21.40;;;7.40;;
22078;SDS011;11206;57.696;11.944;2022-10-14T00:24:39;31.38;;;10.05;;
22078;SDS011;11206;57.696;11.944;2022-10-14T00:27:06;28.83;;;8.20;;
22078;SDS011;11206;57.696;11.944;2022-10-14T00:29:52;18.83;;;7.82;;
22078;SDS011;11206;57.696;11.944;2022-10-14T00:32:18;28.15;;;7.50;;
22078;SDS011;11206;57.696;11.944;2022-10-14T00:34:44;28.50;;;9.40;;
22078;SDS011;11206;57.696;11.944;2022-10-14T00:37:10;22.70;;;7.82;;
22078;SDS011;11206;57.696;11.944;2022-10-14T00:39:36;29.33;;;8.43;;
22078;SDS011;11206;57.696;11.944;2022-10-14T00:42:03;26.30;;;7.20;;
22078;SDS011;11206;57.696;11.944;2022-10-14T00:46:55;21.33;;;7.00;;
22078;SDS011;11206;57.696;11.944;2022-10-14T00:49:26;25.52;;;7.88;;
22078;SDS011;11206;57.696;11.944;2022-10-14T00:52:12;26.63;;;8.25;;
22078;SDS011;11206;57.696;11.944;2022-10-14T00:54:49;21.63;;;6.80;;
22078;SDS011;11206;57.696;11.944;2022-10-14T00:57:16;22.95;;;7.72;;
22078;SDS011;11206;57.696;11.944;2022-10-14T00:59:44;23.00;;;7.43;;
22078;SDS011;11206;57.696;11.944;2022-10-14T01:02:10;18.63;;;6.80;;
22078;SDS011;11206;57.696;11.944;2022-10-14T01:04:37;19.77;;;7.03;;
22078;SDS011;11206;57.696;11.944;2022-10-14T01:09:35;18.30;;;7.03;;
22078;SDS011;11206;57.696;11.944;2022-10-14T01:17:10;22.23;;;7.07;;
22078;SDS011;11206;57.696;11.944;2022-10-14T01:27:08;16.42;;;6.18;;
22078;SDS011;11206;57.696;11.944;2022-10-14T01:32:44;22.70;;;6.47;;
22078;SDS011;11206;57.696;11.944;2022-10-14T01:35:12;17.10;;;6.05;;
22078;SDS011;11206;57.696;11.944;2022-10-14T01:37:44;22.98;;;6.45;;
22078;SDS011;11206;57.696;11.944;2022-10-14T01:40:13;16.15;;;4.65;;
22078;SDS011;11206;57.696;11.944;2022-10-14T01:42:42;14.93;;;5.70;;
22078;SDS011;11206;57.696;11.944;2022-10-14T01:45:11;19.60;;;6.03;;
22078;SDS011;11206;57.696;11.944;2022-10-14T01:47:38;18.75;;;5.50;;
22078;SDS011;11206;57.696;11.944;2022-10-14T01:50:08;12.63;;;5.05;;
22078;SDS011;11206;57.696;11.944;2022-10-14T01:52:41;20.08;;;6.15;;
22078;SDS011;11206;57.696;11.944;2022-10-14T01:55:12;15.90;;;6.38;;
22078;SDS011;11206;57.696;11.944;2022-10-14T01:57:40;18.25;;;6.18;;
22078;SDS011;11206;57.696;11.944;2022-10-14T02:00:08;21.50;;;5.97;;
22078;SDS011;11206;57.696;11.944;2022-10-14T02:02:35;12.77;;;5.30;;
22078;SDS011;11206;57.696;11.944;2022-10-14T02:05:06;15.05;;;5.45;;
22078;SDS011;11206;57.696;11.944;2022-10-14T02:07:35;18.30;;;4.97;;
22078;SDS011;11206;57.696;11.944;2022-10-14T02:12:54;13.85;;;3.92;;
22078;SDS011;11206;57.696;11.944;2022-10-14T02:18:05;18.10;;;4.53;;
22078;SDS011;11206;57.696;11.944;2022-10-14T02:20:36;14.38;;;4.43;;
22078;SDS011;11206;57.696;11.944;2022-10-14T02:23:07;10.13;;;3.63;;
22078;SDS011;11206;57.696;11.944;2022-10-14T02:25:37;11.90;;;4.25;;
22078;SDS011;11206;57.696;11.944;2022-10-14T02:28:04;9.90;;;4.03;;
22078;SDS011;11206;57.696;11.944;2022-10-14T02:30:34;7.25;;;3.35;;
22078;SDS011;11206;57.696;11.944;2022-10-14T02:33:01;11.93;;;3.92;;
22078;SDS011;11206;57.696;11.944;2022-10-14T02:35:28;8.13;;;3.55;;
22078;SDS011;11206;57.696;11.944;2022-10-14T02:37:55;12.50;;;3.70;;
22078;SDS011;11206;57.696;11.944;2022-10-14T02:40:43;10.32;;;3.70;;
22078;SDS011;11206;57.696;11.944;2022-10-14T02:43:08;9.43;;;3.03;;
22078;SDS011;11206;57.696;11.944;2022-10-14T02:45:39;10.73;;;3.92;;
22078;SDS011;11206;57.696;11.944;2022-10-14T02:48:06;12.63;;;4.18;;
22078;SDS011;11206;57.696;11.944;2022-10-14T02:50:32;9.75;;;3.58;;
22078;SDS011;11206;57.696;11.944;2022-10-14T02:52:58;7.20;;;3.17;;
22078;SDS011;11206;57.696;11.944;2022-10-14T02:55:25;5.22;;;2.33;;
22078;SDS011;11206;57.696;11.944;2022-10-14T02:57:51;8.82;;;3.78;;
22078;SDS011;11206;57.696;11.944;2022-10-14T03:00:17;9.90;;;3.80;;
22078;SDS011;11206;57.696;11.944;2022-10-14T03:02:43;13.02;;;3.63;;
22078;SDS011;11206;57.696;11.944;2022-10-14T03:05:09;10.60;;;3.65;;
22078;SDS011;11206;57.696;11.944;2022-10-14T03:07:35;5.35;;;2.72;;
22078;SDS011;11206;57.696;11.944;2022-10-14T03:10:01;12.40;;;3.90;;
22078;SDS011;11206;57.696;11.944;2022-10-14T03:12:27;17.30;;;4.68;;
22078;SDS011;11206;57.696;11.944;2022-10-14T03:14:54;16.92;;;5.20;;
22078;SDS011;11206;57.696;11.944;2022-10-14T03:17:20;10.77;;;4.45;;
22078;SDS011;11206;57.696;11.944;2022-10-14T03:19:46;14.38;;;4.68;;
22078;SDS011;11206;57.696;11.944;2022-10-14T03:22:12;17.48;;;5.70;;
22078;SDS011;11206;57.696;11.944;2022-10-14T03:24:39;19.58;;;6.32;;
22078;SDS011;11206;57.696;11.944;2022-10-14T03:27:06;21.15;;;6.50;;
22078;SDS011;11206;57.696;11.944;2022-10-14T03:29:32;20.85;;;6.20;;
22078;SDS011;11206;57.696;11.944;2022-10-14T03:31:58;25.25;;;7.22;;
22078;SDS011;11206;57.696;11.944;2022-10-14T03:34:24;16.52;;;5.57;;
22078;SDS011;11206;57.696;11.944;2022-10-14T03:36:51;22.33;;;6.20;;
22078;SDS011;11206;57.696;11.944;2022-10-14T03:39:17;15.65;;;5.78;;
22078;SDS011;11206;57.696;11.944;2022-10-14T03:41:44;15.27;;;5.47;;
22078;SDS011;11206;57.696;11.944;2022-10-14T03:44:11;18.20;;;5.70;;
22078;SDS011;11206;57.696;11.944;2022-10-14T03:46:37;21.27;;;6.22;;
22078;SDS011;11206;57.696;11.944;2022-10-14T03:49:03;19.33;;;6.28;;
22078;SDS011;11206;57.696;11.944;2022-10-14T03:51:29;15.75;;;5.57;;
22078;SDS011;11206;57.696;11.944;2022-10-14T03:53:55;17.27;;;6.32;;
22078;SDS011;11206;57.696;11.944;2022-10-14T03:56:21;15.02;;;4.93;;
22078;SDS011;11206;57.696;11.944;2022-10-14T03:58:47;15.43;;;5.05;;
22078;SDS011;11206;57.696;11.944;2022-10-14T04:01:13;23.08;;;5.63;;
22078;SDS011;11206;57.696;11.944;2022-10-14T04:03:40;16.65;;;5.15;;
22078;SDS011;11206;57.696;11.944;2022-10-14T04:06:10;14.68;;;5.15;;
22078;SDS011;11206;57.696;11.944;2022-10-14T04:08:37;13.98;;;4.97;;
22078;SDS011;11206;57.696;11.944;2022-10-14T04:11:03;13.10;;;4.68;;
22078;SDS011;11206;57.696;11.944;2022-10-14T04:13:29;10.65;;;4.50;;
22078;SDS011;11206;57.696;11.944;2022-10-14T04:15:55;9.27;;;3.63;;
22078;SDS011;11206;57.696;11.944;2022-10-14T04:18:21;16.52;;;4.47;;
22078;SDS011;11206;57.696;11.944;2022-10-14T04:20:47;18.05;;;5.63;;
22078;SDS011;11206;57.696;11.944;2022-10-14T04:23:13;10.75;;;3.75;;
22078;SDS011;11206;57.696;11.944;2022-10-14T04:25:39;11.57;;;3.53;;
22078;SDS011;11206;57.696;11.944;2022-10-14T04:28:05;9.20;;;3.88;;
22078;SDS011;11206;57.696;11.944;2022-10-14T04:30:31;10.95;;;4.20;;
22078;SDS011;11206;57.696;11.944;2022-10-14T04:32:57;10.13;;;3.42;;
22078;SDS011;11206;57.696;11.944;2022-10-14T04:35:24;6.35;;;3.03;;
22078;SDS011;11206;57.696;11.944;2022-10-14T04:37:50;7.75;;;2.90;;
22078;SDS011;11206;57.696;11.944;2022-10-14T04:40:16;11.13;;;3.30;;
22078;SDS011;11206;57.696;11.944;2022-10-14T04:42:44;8.98;;;3.13;;
22078;SDS011;11206;57.696;11.944;2022-10-14T04:45:13;9.07;;;3.10;;
22078;SDS011;11206;57.696;11.944;2022-10-14T04:47:39;8.77;;;3.20;;
22078;SDS011;11206;57.696;11.944;2022-10-14T04:50:10;6.85;;;2.72;;
22078;SDS011;11206;57.696;11.944;2022-10-14T04:52:36;8.73;;;3.50;;
22078;SDS011;11206;57.696;11.944;2022-10-14T04:55:02;22.83;;;5.25;;
22078;SDS011;11206;57.696;11.944;2022-10-14T04:57:28;7.93;;;2.72;;
22078;SDS011;11206;57.696;11.944;2022-10-14T04:59:55;5.05;;;2.10;;
22078;SDS011;11206;57.696;11.944;2022-10-14T05:02:22;9.95;;;1.88;;
22078;SDS011;11206;57.696;11.944;2022-10-14T05:04:48;4.55;;;1.70;;
22078;SDS011;11206;57.696;11.944;2022-10-14T05:07:14;7.53;;;1.38;;
22078;SDS011;11206;57.696;11.944;2022-10-14T05:09:41;4.13;;;1.25;;
22078;SDS011;11206;57.696;11.944;2022-10-14T05:12:07;2.70;;;1.02;;
22078;SDS011;11206;57.696;11.944;2022-10-14T05:14:34;4.05;;;0.95;;
22078;SDS011;11206;57.696;11.944;2022-10-14T05:17:00;6.13;;;0.90;;
22078;SDS011;11206;57.696;11.944;2022-10-14T05:19:26;6.22;;;1.08;;
22078;SDS011;11206;57.696;11.944;2022-10-14T05:21:52;5.25;;;0.85;;
22078;SDS011;11206;57.696;11.944;2022-10-14T05:24:19;7.70;;;0.90;;
22078;SDS011;11206;57.696;11.944;2022-10-14T05:26:45;3.67;;;0.50;;
22078;SDS011;11206;57.696;11.944;2022-10-14T05:29:12;5.05;;;0.50;;
22078;SDS011;11206;57.696;11.944;2022-10-14T05:31:38;7.50;;;0.63;;
22078;SDS011;11206;57.696;11.944;2022-10-14T05:34:05;3.05;;;0.60;;
22078;SDS011;11206;57.696;11.944;2022-10-14T05:36:31;6.13;;;0.80;;
22078;SDS011;11206;57.696;11.944;2022-10-14T05:38:57;6.05;;;0.63;;
22078;SDS011;11206;57.696;11.944;2022-10-14T05:41:24;7.63;;;0.88;;
22078;SDS011;11206;57.696;11.944;2022-10-14T05:43:50;6.78;;;0.47;;
22078;SDS011;11206;57.696;11.944;2022-10-14T05:46:16;11.10;;;0.47;;
22078;SDS011;11206;57.696;11.944;2022-10-14T05:48:42;2.35;;;0.40;;
22078;SDS011;11206;57.696;11.944;2022-10-14T05:51:08;6.50;;;1.50;;
22078;SDS011;11206;57.696;11.944;2022-10-14T05:53:35;7.75;;;0.90;;
22078;SDS011;11206;57.696;11.944;2022-10-14T05:56:03;8.30;;;0.52;;
22078;SDS011;11206;57.696;11.944;2022-10-14T05:58:30;2.35;;;0.60;;
22078;SDS011;11206;57.696;11.944;2022-10-14T06:01:00;7.78;;;0.57;;
22078;SDS011;11206;57.696;11.944;2022-10-14T06:03:26;8.05;;;0.80;;
22078;SDS011;11206;57.696;11.944;2022-10-14T06:05:53;4.43;;;0.50;;
22078;SDS011;11206;57.696;11.944;2022-10-14T06:08:19;12.80;;;1.00;;
22078;SDS011;11206;57.696;11.944;2022-10-14T06:10:45;4.00;;;0.90;;
22078;SDS011;11206;57.696;11.944;2022-10-14T06:13:11;12.70;;;0.70;;
22078;SDS011;11206;57.696;11.944;2022-10-14T06:15:38;0.50;;;0.28;;
22078;SDS011;11206;57.696;11.944;2022-10-14T06:18:04;7.65;;;0.55;;
22078;SDS011;11206;57.696;11.944;2022-10-14T06:20:30;6.80;;;0.70;;
22078;SDS011;11206;57.696;11.944;2022-10-14T06:23:00;6.50;;;1.23;;
22078;SDS011;11206;57.696;11.944;2022-10-14T06:25:26;8.48;;;0.85;;
22078;SDS011;11206;57.696;11.944;2022-10-14T06:27:53;2.80;;;0.43;;
22078;SDS011;11206;57.696;11.944;2022-10-14T06:30:19;2.05;;;0.38;;
22078;SDS011;11206;57.696;11.944;2022-10-14T06:32:45;7.63;;;0.57;;
22078;SDS011;11206;57.696;11.944;2022-10-14T06:35:11;11.02;;;0.77;;
22078;SDS011;11206;57.696;11.944;2022-10-14T06:37:37;8.00;;;0.93;;
22078;SDS011;11206;57.696;11.944;2022-10-14T06:40:04;5.28;;;0.88;;
22078;SDS011;11206;57.696;11.944;2022-10-14T06:42:32;7.47;;;0.60;;
22078;SDS011;11206;57.696;11.944;2022-10-14T06:44:58;7.43;;;0.60;;
22078;SDS011;11206;57.696;11.944;2022-10-14T06:47:24;5.72;;;0.95;;
22078;SDS011;11206;57.696;11.944;2022-10-14T06:49:50;5.35;;;0.50;;
22078;SDS011;11206;57.696;11.944;2022-10-14T06:52:16;9.00;;;1.10;;
22078;SDS011;11206;57.696;11.944;2022-10-14T06:54:42;3.92;;;0.22;;
22078;SDS011;11206;57.696;11.944;2022-10-14T06:57:08;1.45;;;0.17;;
22078;SDS011;11206;57.696;11.944;2022-10-14T06:59:34;3.92;;;0.70;;
22078;SDS011;11206;57.696;11.944;2022-10-14T07:02:03;6.28;;;0.52;;
22078;SDS011;11206;57.696;11.944;2022-10-14T07:04:29;9.75;;;0.40;;
22078;SDS011;11206;57.696;11.944;2022-10-14T07:06:55;3.90;;;0.77;;
22078;SDS011;11206;57.696;11.944;2022-10-14T07:09:22;4.95;;;0.57;;
22078;SDS011;11206;57.696;11.944;2022-10-14T07:11:49;7.30;;;0.47;;
22078;SDS011;11206;57.696;11.944;2022-10-14T07:14:15;6.13;;;0.70;;
22078;SDS011;11206;57.696;11.944;2022-10-14T07:16:42;3.22;;;0.47;;
22078;SDS011;11206;57.696;11.944;2022-10-14T07:19:08;4.15;;;0.55;;
22078;SDS011;11206;57.696;11.944;2022-10-14T07:21:34;3.38;;;0.35;;
22078;SDS011;11206;57.696;11.944;2022-10-14T07:24:01;5.40;;;0.65;;
22078;SDS011;11206;57.696;11.944;2022-10-14T07:26:29;5.18;;;0.50;;
22078;SDS011;11206;57.696;11.944;2022-10-14T07:28:55;3.70;;;0.45;;
22078;SDS011;11206;57.696;11.944;2022-10-14T07:31:21;5.85;;;0.73;;
22078;SDS011;11206;57.696;11.944;2022-10-14T07:33:47;1.65;;;0.50;;
22078;SDS011;11206;57.696;11.944;2022-10-14T07:36:14;6.28;;;0.60;;
22078;SDS011;11206;57.696;11.944;2022-10-14T07:38:41;3.83;;;0.50;;
22078;SDS011;11206;57.696;11.944;2022-10-14T07:41:08;4.47;;;0.38;;
22078;SDS011;11206;57.696;11.944;2022-10-14T07:43:41;5.35;;;0.52;;
22078;SDS011;11206;57.696;11.944;2022-10-14T07:46:07;1.75;;;0.40;;
22078;SDS011;11206;57.696;11.944;2022-10-14T07:48:34;7.65;;;0.63;;
22078;SDS011;11206;57.696;11.944;2022-10-14T07:51:00;3.88;;;0.50;;
22078;SDS011;11206;57.696;11.944;2022-10-14T07:53:27;4.72;;;0.22;;
22078;SDS011;11206;57.696;11.944;2022-10-14T07:55:55;5.45;;;0.52;;
22078;SDS011;11206;57.696;11.944;2022-10-14T07:58:23;6.43;;;0.63;;
22078;SDS011;11206;57.696;11.944;2022-10-14T08:00:51;4.70;;;0.50;;
22078;SDS011;11206;57.696;11.944;2022-10-14T08:03:39;1.92;;;0.52;;
22078;SDS011;11206;57.696;11.944;2022-10-14T08:06:05;4.20;;;0.38;;
22078;SDS011;11206;57.696;11.944;2022-10-14T08:08:31;4.22;;;0.40;;
22078;SDS011;11206;57.696;11.944;2022-10-14T08:11:01;2.25;;;0.55;;
22078;SDS011;11206;57.696;11.944;2022-10-14T08:13:28;2.60;;;0.38;;
22078;SDS011;11206;57.696;11.944;2022-10-14T08:15:54;7.63;;;0.75;;
22078;SDS011;11206;57.696;11.944;2022-10-14T08:18:22;7.90;;;0.50;;
22078;SDS011;11206;57.696;11.944;2022-10-14T08:20:48;7.40;;;0.50;;
22078;SDS011;11206;57.696;11.944;2022-10-14T08:23:14;3.40;;;0.25;;
22078;SDS011;11206;57.696;11.944;2022-10-14T08:25:40;12.27;;;0.55;;
22078;SDS011;11206;57.696;11.944;2022-10-14T08:28:07;1.13;;;0.30;;
22078;SDS011;11206;57.696;11.944;2022-10-14T08:30:33;10.20;;;0.60;;
22078;SDS011;11206;57.696;11.944;2022-10-14T08:32:59;3.17;;;0.47;;
22078;SDS011;11206;57.696;11.944;2022-10-14T08:35:25;5.88;;;0.40;;
22078;SDS011;11206;57.696;11.944;2022-10-14T08:37:59;3.92;;;0.65;;
22078;SDS011;11206;57.696;11.944;2022-10-14T08:40:27;3.40;;;0.40;;
22078;SDS011;11206;57.696;11.944;2022-10-14T08:42:56;0.50;;;0.20;;
22078;SDS011;11206;57.696;11.944;2022-10-14T08:47:53;3.53;;;0.40;;
22078;SDS011;11206;57.696;11.944;2022-10-14T08:50:25;3.05;;;0.50;;
22078;SDS011;11206;57.696;11.944;2022-10-14T08:53:08;1.23;;;0.30;;
22078;SDS011;11206;57.696;11.944;2022-10-14T08:55:36;3.10;;;0.57;;
22078;SDS011;11206;57.696;11.944;2022-10-14T09:00:49;3.55;;;0.45;;
22078;SDS011;11206;57.696;11.944;2022-10-14T09:03:20;6.07;;;0.40;;
22078;SDS011;11206;57.696;11.944;2022-10-14T09:08:28;3.50;;;0.50;;
22078;SDS011;11206;57.696;11.944;2022-10-14T09:10:55;4.93;;;0.47;;
22078;SDS011;11206;57.696;11.944;2022-10-14T09:13:33;2.17;;;0.50;;
22078;SDS011;11206;57.696;11.944;2022-10-14T09:16:07;3.00;;;0.40;;
22078;SDS011;11206;57.696;11.944;2022-10-14T09:18:36;1.05;;;0.20;;
22078;SDS011;11206;57.696;11.944;2022-10-14T09:21:10;6.80;;;0.82;;
22078;SDS011;11206;57.696;11.944;2022-10-14T09:23:41;5.93;;;0.47;;
22078;SDS011;11206;57.696;11.944;2022-10-14T09:26:08;3.78;;;0.50;;
22078;SDS011;11206;57.696;11.944;2022-10-14T09:28:38;1.80;;;0.47;;
22078;SDS011;11206;57.696;11.944;2022-10-14T09:31:05;7.63;;;0.60;;
22078;SDS011;11206;57.696;11.944;2022-10-14T09:33:34;7.22;;;0.63;;
22078;SDS011;11206;57.696;11.944;2022-10-14T09:36:09;8.93;;;0.60;;
22078;SDS011;11206;57.696;11.944;2022-10-14T09:38:37;6.30;;;0.50;;
22078;SDS011;11206;57.696;11.944;2022-10-14T09:41:39;7.82;;;0.40;;
22078;SDS011;11206;57.696;11.944;2022-10-14T09:44:18;6.88;;;0.50;;
22078;SDS011;11206;57.696;11.944;2022-10-14T09:46:57;5.53;;;0.40;;
22078;SDS011;11206;57.696;11.944;2022-10-14T09:49:36;6.35;;;0.52;;
22078;SDS011;11206;57.696;11.944;2022-10-14T09:52:03;5.28;;;1.13;;
22078;SDS011;11206;57.696;11.944;2022-10-14T09:54:30;10.48;;;0.47;;
22078;SDS011;11206;57.696;11.944;2022-10-14T09:57:06;6.68;;;0.65;;
22078;SDS011;11206;57.696;11.944;2022-10-14T09:59:37;5.18;;;0.60;;
22078;SDS011;11206;57.696;11.944;2022-10-14T10:02:04;9.63;;;0.68;;
22078;SDS011;11206;57.696;11.944;2022-10-14T10:04:41;3.13;;;0.50;;
22078;SDS011;11206;57.696;11.944;2022-10-14T10:07:43;4.38;;;0.47;;
22078;SDS011;11206;57.696;11.944;2022-10-14T10:10:16;2.30;;;0.30;;
22078;SDS011;11206;57.696;11.944;2022-10-14T10:15:55;6.80;;;0.47;;
22078;SDS011;11206;57.696;11.944;2022-10-14T10:18:21;5.53;;;0.43;;
22078;SDS011;11206;57.696;11.944;2022-10-14T10:20:58;9.65;;;0.50;;
22078;SDS011;11206;57.696;11.944;2022-10-14T10:23:26;9.00;;;0.60;;
22078;SDS011;11206;57.696;11.944;2022-10-14T10:25:55;1.05;;;0.50;;
22078;SDS011;11206;57.696;11.944;2022-10-14T10:28:27;3.92;;;0.25;;
22078;SDS011;11206;57.696;11.944;2022-10-14T10:33:38;4.22;;;0.38;;
22078;SDS011;11206;57.696;11.944;2022-10-14T10:43:56;6.40;;;0.60;;
22078;SDS011;11206;57.696;11.944;2022-10-14T11:00:29;5.60;;;0.38;;
22078;SDS011;11206;57.696;11.944;2022-10-14T11:03:07;5.97;;;0.30;;
22078;SDS011;11206;57.696;11.944;2022-10-14T11:05:42;10.43;;;0.70;;
22078;SDS011;11206;57.696;11.944;2022-10-14T11:17:13;27.80;;;5.50;;
22078;SDS011;11206;57.696;11.944;2022-10-14T11:30:35;3.58;;;0.45;;
22078;SDS011;11206;57.696;11.944;2022-10-14T11:40:59;2.50;;;0.55;;
22078;SDS011;11206;57.696;11.944;2022-10-14T11:47:06;0.60;;;0.10;;
22078;SDS011;11206;57.696;11.944;2022-10-14T11:49:40;5.25;;;0.47;;
22078;SDS011;11206;57.696;11.944;2022-10-14T11:55:05;4.13;;;0.43;;
22078;SDS011;11206;57.696;11.944;2022-10-14T11:57:34;5.45;;;0.40;;
22078;SDS011;11206;57.696;11.944;2022-10-14T12:00:03;4.90;;;0.43;;
22078;SDS011;11206;57.696;11.944;2022-10-14T12:02:34;5.85;;;0.32;;
22078;SDS011;11206;57.696;11.944;2022-10-14T12:10:45;1.60;;;0.45;;
22078;SDS011;11206;57.696;11.944;2022-10-14T12:13:14;4.80;;;0.25;;
22078;SDS011;11206;57.696;11.944;2022-10-14T12:15:42;1.50;;;0.10;;
22078;SDS011;11206;57.696;11.944;2022-10-14T12:18:10;6.10;;;0.77;;
22078;SDS011;11206;57.696;11.944;2022-10-14T12:23:28;5.40;;;0.30;;
22078;SDS011;11206;57.696;11.944;2022-10-14T12:25:57;2.97;;;0.40;;
22078;SDS011;11206;57.696;11.944;2022-10-14T12:28:44;5.03;;;0.30;;
22078;SDS011;11206;57.696;11.944;2022-10-14T12:31:31;1.10;;;0.20;;
22078;SDS011;11206;57.696;11.944;2022-10-14T12:34:15;3.03;;;0.20;;
22078;SDS011;11206;57.696;11.944;2022-10-14T12:36:46;2.25;;;0.47;;
22078;SDS011;11206;57.696;11.944;2022-10-14T12:44:18;0.80;;;0.20;;
22078;SDS011;11206;57.696;11.944;2022-10-14T12:46:44;4.28;;;0.50;;
22078;SDS011;11206;57.696;11.944;2022-10-14T12:49:26;0.68;;;0.30;;
22078;SDS011;11206;57.696;11.944;2022-10-14T12:51:53;1.08;;;0.38;;
22078;SDS011;11206;57.696;11.944;2022-10-14T12:54:20;1.15;;;0.20;;
22078;SDS011;11206;57.696;11.944;2022-10-14T12:59:37;5.45;;;0.90;;
22078;SDS011;11206;57.696;11.944;2022-10-14T13:02:13;3.53;;;0.50;;
22078;SDS011;11206;57.696;11.944;2022-10-14T13:04:49;5.10;;;0.50;;
22078;SDS011;11206;57.696;11.944;2022-10-14T13:09:46;3.03;;;0.43;;
22078;SDS011;11206;57.696;11.944;2022-10-14T13:14:55;2.03;;;0.40;;
22078;SDS011;11206;57.696;11.944;2022-10-14T13:23:11;5.15;;;0.32;;
22078;SDS011;11206;57.696;11.944;2022-10-14T13:25:40;3.40;;;0.45;;
22078;SDS011;11206;57.696;11.944;2022-10-14T13:28:10;1.75;;;0.30;;
22078;SDS011;11206;57.696;11.944;2022-10-14T13:30:54;4.95;;;0.32;;
22078;SDS011;11206;57.696;11.944;2022-10-14T13:33:25;4.22;;;0.45;;
22078;SDS011;11206;57.696;11.944;2022-10-14T13:38:23;3.42;;;0.40;;
22078;SDS011;11206;57.696;11.944;2022-10-14T13:40:50;1.90;;;0.40;;
22078;SDS011;11206;57.696;11.944;2022-10-14T13:43:18;3.00;;;0.47;;
22078;SDS011;11206;57.696;11.944;2022-10-14T13:45:49;0.95;;;0.20;;
22078;SDS011;11206;57.696;11.944;2022-10-14T13:51:25;1.52;;;0.30;;
22078;SDS011;11206;57.696;11.944;2022-10-14T13:53:54;1.30;;;0.32;;
22078;SDS011;11206;57.696;11.944;2022-10-14T13:58:47;4.60;;;0.57;;
22078;SDS011;11206;57.696;11.944;2022-10-14T14:01:13;1.42;;;0.32;;
22078;SDS011;11206;57.696;11.944;2022-10-14T14:03:41;2.13;;;0.40;;
22078;SDS011;11206;57.696;11.944;2022-10-14T14:06:09;2.72;;;0.30;;
22078;SDS011;11206;57.696;11.944;2022-10-14T14:08:38;4.95;;;0.95;;
22078;SDS011;11206;57.696;11.944;2022-10-14T14:11:07;2.50;;;0.43;;
22078;SDS011;11206;57.696;11.944;2022-10-14T14:13:35;1.77;;;0.40;;
22078;SDS011;11206;57.696;11.944;2022-10-14T14:16:13;0.85;;;0.20;;
22078;SDS011;11206;57.696;11.944;2022-10-14T14:18:45;1.88;;;0.35;;
22078;SDS011;11206;57.696;11.944;2022-10-14T14:21:11;0.98;;;0.20;;
22078;SDS011;11206;57.696;11.944;2022-10-14T14:23:51;1.75;;;0.32;;
22078;SDS011;11206;57.696;11.944;2022-10-14T14:26:17;1.77;;;0.20;;
22078;SDS011;11206;57.696;11.944;2022-10-14T14:28:47;0.22;;;0.10;;
22078;SDS011;11206;57.696;11.944;2022-10-14T14:31:14;2.40;;;0.38;;
22078;SDS011;11206;57.696;11.944;2022-10-14T14:33:41;1.85;;;0.20;;
22078;SDS011;11206;57.696;11.944;2022-10-14T14:36:10;4.38;;;0.50;;
22078;SDS011;11206;57.696;11.944;2022-10-14T14:38:37;3.63;;;0.57;;
22078;SDS011;11206;57.696;11.944;2022-10-14T14:41:04;5.05;;;0.25;;
22078;SDS011;11206;57.696;11.944;2022-10-14T14:43:31;3.60;;;0.30;;
22078;SDS011;11206;57.696;11.944;2022-10-14T14:45:59;2.60;;;0.40;;
22078;SDS011;11206;57.696;11.944;2022-10-14T14:48:26;6.82;;;0.45;;
22078;SDS011;11206;57.696;11.944;2022-10-14T14:50:52;1.23;;;0.30;;
22078;SDS011;11206;57.696;11.944;2022-10-14T14:53:19;5.70;;;0.22;;
22078;SDS011;11206;57.696;11.944;2022-10-14T15:00:47;2.33;;;0.40;;
22078;SDS011;11206;57.696;11.944;2022-10-14T15:03:15;2.63;;;0.30;;
22078;SDS011;11206;57.696;11.944;2022-10-14T15:06:15;13.43;;;1.02;;
22078;SDS011;11206;57.696;11.944;2022-10-14T15:08:34;3.92;;;0.55;;
22078;SDS011;11206;57.696;11.944;2022-10-14T15:11:02;4.22;;;0.50;;
22078;SDS011;11206;57.696;11.944;2022-10-14T15:13:41;1.33;;;0.22;;
22078;SDS011;11206;57.696;11.944;2022-10-14T15:16:08;6.72;;;0.47;;
22078;SDS011;11206;57.696;11.944;2022-10-14T15:18:34;3.13;;;0.35;;
22078;SDS011;11206;57.696;11.944;2022-10-14T15:21:15;0.68;;;0.30;;
22078;SDS011;11206;57.696;11.944;2022-10-14T15:26:21;5.35;;;0.50;;
22078;SDS011;11206;57.696;11.944;2022-10-14T15:31:29;0.20;;;0.20;;
22078;SDS011;11206;57.696;11.944;2022-10-14T15:33:55;3.72;;;0.55;;
22078;SDS011;11206;57.696;11.944;2022-10-14T15:36:21;1.58;;;0.45;;
22078;SDS011;11206;57.696;11.944;2022-10-14T15:38:47;4.97;;;0.55;;
22078;SDS011;11206;57.696;11.944;2022-10-14T15:41:14;2.08;;;0.30;;
22078;SDS011;11206;57.696;11.944;2022-10-14T15:43:40;2.13;;;0.43;;
22078;SDS011;11206;57.696;11.944;2022-10-14T15:46:08;2.95;;;0.20;;
22078;SDS011;11206;57.696;11.944;2022-10-14T15:48:58;5.43;;;0.40;;
22078;SDS011;11206;57.696;11.944;2022-10-14T15:51:27;3.08;;;0.10;;
22078;SDS011;11206;57.696;11.944;2022-10-14T15:53:59;0.55;;;0.22;;
22078;SDS011;11206;57.696;11.944;2022-10-14T15:56:25;3.15;;;0.43;;
22078;SDS011;11206;57.696;11.944;2022-10-14T15:58:52;9.57;;;1.30;;
22078;SDS011;11206;57.696;11.944;2022-10-14T16:01:18;3.15;;;0.63;;
22078;SDS011;11206;57.696;11.944;2022-10-14T16:03:45;4.50;;;0.57;;
22078;SDS011;11206;57.696;11.944;2022-10-14T16:06:12;1.67;;;0.50;;
22078;SDS011;11206;57.696;11.944;2022-10-14T16:08:39;6.80;;;0.60;;
22078;SDS011;11206;57.696;11.944;2022-10-14T16:11:28;0.80;;;0.20;;
22078;SDS011;11206;57.696;11.944;2022-10-14T16:13:53;1.10;;;0.32;;
22078;SDS011;11206;57.696;11.944;2022-10-14T16:17:01;1.63;;;0.35;;
22078;SDS011;11206;57.696;11.944;2022-10-14T16:19:08;1.75;;;0.22;;
22078;SDS011;11206;57.696;11.944;2022-10-14T16:21:35;4.28;;;0.63;;
22078;SDS011;11206;57.696;11.944;2022-10-14T16:24:01;0.47;;;0.25;;
22078;SDS011;11206;57.696;11.944;2022-10-14T16:26:28;1.02;;;0.30;;
22078;SDS011;11206;57.696;11.944;2022-10-14T16:28:54;3.00;;;0.75;;
22078;SDS011;11206;57.696;11.944;2022-10-14T16:31:21;7.00;;;0.70;;
22078;SDS011;11206;57.696;11.944;2022-10-14T16:33:50;2.33;;;0.68;;
22078;SDS011;11206;57.696;11.944;2022-10-14T16:36:20;4.75;;;0.65;;
22078;SDS011;11206;57.696;11.944;2022-10-14T16:38:50;4.50;;;0.60;;
22078;SDS011;11206;57.696;11.944;2022-10-14T16:41:16;3.80;;;0.68;;
22078;SDS011;11206;57.696;11.944;2022-10-14T16:43:42;7.88;;;0.65;;
22078;SDS011;11206;57.696;11.944;2022-10-14T16:46:09;5.10;;;1.00;;
22078;SDS011;11206;57.696;11.944;2022-10-14T16:48:36;1.90;;;0.50;;
22078;SDS011;11206;57.696;11.944;2022-10-14T16:51:03;5.50;;;0.75;;
22078;SDS011;11206;57.696;11.944;2022-10-14T16:53:30;5.15;;;0.50;;
22078;SDS011;11206;57.696;11.944;2022-10-14T16:56:16;2.67;;;0.43;;
22078;SDS011;11206;57.696;11.944;2022-10-14T16:59:01;1.33;;;0.38;;
22078;SDS011;11206;57.696;11.944;2022-10-14T17:01:28;1.23;;;0.43;;